Archival Weather

Republic

Farmingdale, New York (KFRG)

Report from: Friday, February 23, 2024 10:53 AM EST
Current time: Monday, June 24, 2024 5:32 AM EDT

Current weather – Weather history – Daily summaries
Weather forecast

Temperature8.9°C (48.0°F)
Wind chill7.1°C (44.9°F)
Dew point5.0°C (41.0°F)
Winds 6 kts (3.1 m/s, 6.9 mph) North-Northwest (340°)
Visibility10 mi. (16.1 km)
Clouds Few clouds 6,000 ft. (1,829 m)
Ceiling: Broken clouds 8,500 ft. (2,591 m)
Broken clouds 11,000 ft. (3,353 m)
Altimeter29.51 in.Hg (999 mB)
Relative humidity77 %
Density altitude-124 ft. (-38 m)
Sea-level pressure99.9 kPa (999 mB, 29.51 in.Hg)
Remarks Automated weather observing station without precipitation discriminator
Flight conditions Visual Meteorological Conditions
Raw dataKFRG 231553Z 34006KT 10SM FEW060 BKN085 BKN110 09/05 A2951 RMK AO1 SLP992 T00890050
An error has occurred. This application may no longer respond until reloaded. Reload 🗙